createdAt,value
2023-03-19T00:01:04.406Z,59.60
2023-03-19T00:02:18.266Z,59.62
2023-03-19T00:03:21.589Z,59.53
2023-03-19T00:04:26.285Z,59.58
2023-03-19T00:05:29.580Z,59.59
2023-03-19T00:06:32.670Z,59.58
2023-03-19T00:07:35.944Z,59.61
2023-03-19T00:08:38.917Z,59.60
2023-03-19T00:09:42.760Z,59.57
2023-03-19T00:10:45.634Z,59.61
2023-03-19T00:11:49.045Z,59.63
2023-03-19T00:12:52.243Z,59.65
2023-03-19T00:13:55.184Z,59.69
2023-03-19T00:14:58.094Z,59.71
2023-03-19T00:16:01.351Z,59.72
2023-03-19T00:17:04.399Z,59.87
2023-03-19T00:18:08.663Z,60.02
2023-03-19T00:19:12.160Z,60.11
2023-03-19T00:20:15.554Z,60.36
2023-03-19T00:21:18.380Z,60.49
2023-03-19T00:22:21.835Z,60.62
2023-03-19T00:23:24.808Z,60.78
2023-03-19T00:24:29.034Z,60.93
2023-03-19T00:25:32.805Z,61.01
2023-03-19T00:26:36.607Z,61.06
2023-03-19T00:27:39.568Z,61.18
2023-03-19T00:28:42.715Z,61.30
2023-03-19T00:29:45.731Z,61.41
2023-03-19T00:30:48.785Z,61.48
2023-03-19T00:31:51.717Z,61.56
2023-03-19T00:32:54.712Z,61.69
2023-03-19T00:33:59.253Z,61.78
2023-03-19T00:35:02.356Z,61.88
2023-03-19T00:36:06.950Z,61.96
2023-03-19T00:37:10.041Z,62.07
2023-03-19T00:38:12.932Z,62.16
2023-03-19T00:39:15.921Z,62.25
2023-03-19T00:40:19.088Z,62.31
2023-03-19T00:41:22.840Z,62.40
2023-03-19T00:42:26.208Z,62.48
2023-03-19T00:43:29.156Z,63.01
2023-03-19T00:44:32.155Z,63.19
2023-03-19T00:45:35.334Z,63.22
2023-03-19T00:46:38.357Z,63.02
2023-03-19T00:47:42.196Z,62.83
2023-03-19T00:48:45.180Z,62.59
2023-03-19T00:49:48.499Z,62.36
2023-03-19T00:50:51.659Z,62.15
2023-03-19T00:51:54.513Z,61.89
2023-03-19T00:52:57.350Z,61.63
2023-03-19T00:54:00.262Z,61.38
2023-03-19T00:55:03.251Z,61.16
2023-03-19T00:56:07.748Z,60.97
2023-03-19T00:57:10.946Z,60.50
2023-03-19T00:58:13.802Z,60.45
2023-03-19T00:59:16.613Z,60.41
2023-03-19T01:00:20.291Z,60.29
2023-03-19T01:01:23.395Z,60.20
2023-03-19T01:02:26.472Z,59.87
2023-03-19T01:03:30.886Z,59.84
2023-03-19T01:04:33.938Z,58.93
2023-03-19T01:06:39.831Z,59.27
2023-03-19T01:07:42.834Z,59.60
2023-03-19T01:08:45.733Z,59.82
2023-03-19T01:09:48.561Z,60.09
2023-03-19T01:10:51.708Z,60.41
2023-03-19T01:11:54.630Z,60.71
2023-03-19T01:12:57.675Z,60.95
2023-03-19T01:14:00.516Z,61.15
2023-03-19T01:15:05.051Z,61.39
2023-03-19T01:16:08.677Z,61.86
2023-03-19T01:17:12.090Z,61.92
2023-03-19T01:18:15.301Z,62.08
2023-03-19T01:19:18.373Z,62.30
2023-03-19T01:20:24.145Z,62.63
2023-03-19T01:21:31.060Z,63.36
2023-03-19T01:22:36.846Z,63.71
2023-03-19T01:23:41.021Z,63.72
2023-03-19T01:24:44.600Z,63.54
2023-03-19T01:25:47.736Z,63.37
2023-03-19T01:26:51.050Z,63.13
2023-03-19T01:28:10.475Z,63.35
2023-03-19T01:29:15.221Z,62.77
2023-03-19T01:31:56.339Z,62.91
2023-03-19T01:33:35.262Z,62.85
2023-03-19T01:34:45.155Z,62.24
2023-03-19T01:35:51.636Z,61.94
2023-03-19T01:36:56.047Z,61.71
2023-03-19T01:38:05.812Z,61.61
2023-03-19T01:39:09.312Z,61.29
2023-03-19T01:40:14.273Z,61.21
2023-03-19T01:41:17.334Z,61.21
2023-03-19T01:42:20.645Z,61.10
2023-03-19T01:43:43.840Z,61.39
2023-03-19T01:45:31.681Z,61.35
2023-03-19T01:46:55.780Z,61.70
2023-03-19T01:48:28.389Z,61.28
2023-03-19T01:49:40.536Z,61.14
2023-03-19T01:50:57.918Z,60.92
2023-03-19T01:52:07.376Z,60.67
2023-03-19T01:53:21.236Z,60.68
2023-03-19T01:54:34.604Z,60.60
2023-03-19T01:56:09.088Z,60.66
2023-03-19T01:57:25.581Z,60.74
2023-03-19T01:58:49.700Z,60.64
2023-03-19T02:00:05.014Z,60.44
2023-03-19T02:01:20.720Z,60.49
2023-03-19T02:02:24.046Z,60.27
2023-03-19T02:03:27.362Z,60.24
2023-03-19T02:04:43.501Z,60.30
2023-03-19T02:05:49.424Z,60.31
2023-03-19T02:06:57.240Z,60.28
2023-03-19T02:08:05.257Z,60.31
2023-03-19T02:09:09.452Z,60.36
2023-03-19T02:10:16.999Z,60.36
2023-03-19T02:11:21.939Z,60.39
2023-03-19T02:12:24.916Z,60.31
2023-03-19T02:13:28.291Z,60.26
2023-03-19T02:14:31.600Z,60.25
2023-03-19T02:15:34.639Z,60.20
2023-03-19T02:16:37.740Z,60.05
2023-03-19T02:17:42.338Z,59.76
2023-03-19T02:18:45.707Z,59.48
2023-03-19T02:19:51.637Z,59.72
2023-03-19T02:21:05.678Z,59.62
2023-03-19T02:22:11.990Z,59.74
2023-03-19T02:23:34.889Z,60.04
2023-03-19T02:24:58.870Z,60.14
2023-03-19T02:26:07.817Z,60.79
2023-03-19T02:27:11.742Z,61.98
2023-03-19T02:28:22.347Z,62.51
2023-03-19T02:29:26.132Z,63.13
2023-03-19T02:30:33.717Z,63.41
2023-03-19T02:31:41.046Z,63.78
2023-03-19T02:32:44.672Z,63.98
2023-03-19T02:34:20.109Z,63.68
2023-03-19T02:35:23.091Z,62.94
2023-03-19T02:36:31.872Z,62.43
2023-03-19T02:37:34.981Z,62.35
2023-03-19T02:38:39.018Z,62.24
2023-03-19T02:39:47.702Z,62.52
2023-03-19T02:40:59.695Z,62.21
2023-03-19T02:42:04.321Z,62.22
2023-03-19T02:43:07.375Z,62.64
2023-03-19T02:44:12.311Z,63.01
2023-03-19T02:45:15.892Z,62.44
2023-03-19T02:46:18.730Z,62.95
2023-03-19T02:47:21.742Z,63.09
2023-03-19T02:48:25.264Z,63.20
2023-03-19T02:49:28.093Z,63.11
2023-03-19T02:50:31.189Z,63.17
2023-03-19T02:51:34.113Z,63.27
2023-03-19T02:52:37.181Z,63.15
2023-03-19T02:53:40.121Z,63.11
2023-03-19T02:54:42.982Z,63.07
2023-03-19T02:55:45.914Z,63.02
2023-03-19T02:56:49.141Z,63.01
2023-03-19T02:57:52.074Z,62.98
2023-03-19T02:58:55.103Z,62.92
2023-03-19T02:59:58.549Z,63.04
2023-03-19T03:01:01.574Z,62.98
2023-03-19T03:02:07.006Z,63.02
2023-03-19T03:03:09.974Z,62.93
2023-03-19T03:04:15.130Z,62.93
2023-03-19T03:05:18.545Z,62.95
2023-03-19T03:06:21.644Z,62.90
2023-03-19T03:07:24.516Z,62.97
2023-03-19T03:08:28.408Z,62.96
2023-03-19T03:09:31.384Z,62.93
2023-03-19T03:10:35.318Z,62.94
2023-03-19T03:11:43.333Z,62.97
2023-03-19T03:12:46.675Z,62.94
2023-03-19T03:13:49.881Z,62.94
2023-03-19T03:14:52.704Z,62.96
2023-03-19T03:15:55.598Z,62.96
2023-03-19T03:16:58.737Z,62.84
2023-03-19T03:18:01.708Z,62.99
2023-03-19T03:19:06.014Z,62.99
2023-03-19T03:20:11.551Z,62.96
2023-03-19T03:21:14.494Z,62.98
2023-03-19T03:22:17.507Z,63.08
2023-03-19T03:23:22.081Z,63.03
2023-03-19T03:24:25.171Z,63.08
2023-03-19T03:25:28.435Z,62.96
2023-03-19T03:26:31.765Z,63.07
2023-03-19T03:27:34.963Z,63.02
2023-03-19T03:28:38.030Z,63.01
2023-03-19T03:29:41.663Z,63.00
2023-03-19T03:30:45.269Z,63.05
2023-03-19T03:31:48.207Z,63.06
2023-03-19T03:32:51.992Z,62.80
2023-03-19T03:33:54.916Z,62.58
2023-03-19T03:34:57.873Z,62.30
2023-03-19T03:36:01.282Z,62.54
2023-03-19T03:37:04.080Z,62.52
2023-03-19T03:38:06.919Z,62.52
2023-03-19T03:39:09.845Z,62.84
2023-03-19T03:40:14.402Z,62.75
2023-03-19T03:41:17.452Z,63.20
2023-03-19T03:42:21.145Z,63.01
2023-03-19T03:43:25.553Z,63.34
2023-03-19T03:44:28.497Z,63.38
2023-03-19T03:45:31.476Z,63.38
2023-03-19T03:46:34.590Z,63.45
2023-03-19T03:47:37.752Z,63.50
2023-03-19T03:48:41.192Z,63.53
2023-03-19T03:49:45.716Z,63.54
2023-03-19T03:50:49.297Z,63.50
2023-03-19T03:51:54.449Z,63.58
2023-03-19T03:52:57.464Z,63.49
2023-03-19T03:54:00.459Z,63.37
2023-03-19T03:55:03.568Z,63.46
2023-03-19T03:56:06.909Z,63.42
2023-03-19T03:57:10.005Z,63.50
2023-03-19T03:58:13.217Z,63.50
2023-03-19T03:59:16.574Z,63.48
2023-03-19T04:00:20.185Z,63.42
2023-03-19T04:01:23.185Z,63.32
2023-03-19T04:02:28.179Z,63.31
2023-03-19T04:03:31.419Z,63.30
2023-03-19T04:04:34.346Z,63.27
2023-03-19T04:05:38.029Z,63.26
2023-03-19T04:06:41.564Z,63.26
2023-03-19T04:08:13.985Z,63.29
2023-03-19T04:09:17.298Z,63.05
2023-03-19T04:10:20.431Z,63.09
2023-03-19T04:11:23.636Z,63.12
2023-03-19T04:12:27.024Z,63.03
2023-03-19T04:13:31.637Z,62.99
2023-03-19T04:14:34.482Z,62.97
2023-03-19T04:15:37.758Z,62.88
2023-03-19T04:16:44.345Z,62.87
2023-03-19T04:17:47.408Z,62.81
2023-03-19T04:18:50.712Z,62.75
2023-03-19T04:19:54.359Z,62.69
2023-03-19T04:20:57.888Z,62.64
2023-03-19T04:22:00.968Z,62.56
2023-03-19T04:23:04.238Z,62.61
2023-03-19T04:24:07.370Z,62.46
2023-03-19T04:25:10.928Z,62.61
2023-03-19T04:26:14.235Z,62.59
2023-03-19T04:27:17.187Z,62.74
2023-03-19T04:28:20.370Z,62.82
2023-03-19T04:29:23.833Z,62.85
2023-03-19T04:30:27.734Z,62.80
2023-03-19T04:31:31.511Z,62.87
2023-03-19T04:32:35.852Z,62.88
2023-03-19T04:33:39.167Z,62.86
2023-03-19T04:34:42.953Z,62.87
2023-03-19T04:35:45.912Z,62.93
2023-03-19T04:36:50.036Z,63.02
2023-03-19T04:37:53.035Z,63.01
2023-03-19T04:38:57.186Z,62.99
2023-03-19T04:40:01.070Z,63.09
2023-03-19T04:41:05.814Z,63.12
2023-03-19T04:42:11.483Z,63.19
2023-03-19T04:43:30.244Z,62.89
2023-03-19T04:44:34.089Z,63.20
2023-03-19T04:45:37.757Z,63.15
2023-03-19T04:46:42.153Z,63.08
2023-03-19T04:47:45.380Z,63.05
2023-03-19T04:48:48.988Z,63.16
2023-03-19T04:49:52.750Z,63.42
2023-03-19T04:50:57.454Z,63.48
2023-03-19T04:52:01.712Z,63.61
2023-03-19T04:53:04.729Z,63.58
2023-03-19T04:54:08.055Z,63.57
2023-03-19T04:55:11.256Z,63.64
2023-03-19T04:56:29.655Z,63.83
2023-03-19T04:57:32.802Z,63.66
2023-03-19T04:58:36.535Z,63.60
2023-03-19T04:59:39.836Z,63.67
2023-03-19T05:00:46.868Z,63.62
2023-03-19T05:01:53.040Z,63.74
2023-03-19T05:02:58.643Z,63.75
2023-03-19T05:04:03.423Z,63.74
2023-03-19T05:05:08.088Z,63.72
2023-03-19T05:06:11.930Z,63.64
2023-03-19T05:07:15.066Z,63.62
2023-03-19T05:08:18.361Z,63.69
2023-03-19T05:09:21.831Z,63.59
2023-03-19T05:10:25.116Z,63.68
2023-03-19T05:11:28.411Z,63.59
2023-03-19T05:12:44.124Z,63.57
2023-03-19T05:13:47.504Z,63.89
2023-03-19T05:14:50.442Z,63.96
2023-03-19T05:15:57.001Z,63.90
2023-03-19T05:17:00.602Z,63.84
2023-03-19T05:18:08.766Z,63.97
2023-03-19T05:19:30.021Z,63.99
2023-03-19T05:20:33.135Z,63.86
2023-03-19T05:21:41.007Z,63.85
2023-03-19T05:22:44.205Z,63.84
2023-03-19T05:23:47.134Z,63.88
2023-03-19T05:24:51.577Z,63.93
2023-03-19T05:25:54.715Z,63.83
2023-03-19T05:27:04.733Z,63.83
2023-03-19T05:28:08.935Z,63.71
2023-03-19T05:29:11.996Z,63.58
2023-03-19T05:30:27.926Z,63.68
2023-03-19T05:31:41.854Z,63.70
2023-03-19T05:32:47.051Z,63.63
2023-03-19T05:34:10.558Z,63.63
2023-03-19T05:35:14.378Z,63.45
2023-03-19T05:36:18.178Z,63.40
2023-03-19T05:37:44.253Z,63.56
2023-03-19T05:38:47.334Z,63.25
2023-03-19T05:39:54.849Z,63.21
2023-03-19T05:41:04.239Z,63.05
2023-03-19T05:42:12.810Z,63.04
2023-03-19T05:43:15.697Z,62.96
2023-03-19T05:44:19.509Z,62.99
2023-03-19T05:45:39.782Z,63.12
2023-03-19T05:46:49.711Z,62.98
2023-03-19T05:47:53.936Z,62.91
2023-03-19T05:48:57.503Z,62.96
2023-03-19T05:50:00.891Z,63.03
2023-03-19T05:51:04.660Z,63.01
2023-03-19T05:52:14.479Z,63.05
2023-03-19T05:53:17.474Z,62.96
2023-03-19T05:54:27.232Z,62.98
2023-03-19T05:55:46.650Z,63.03
2023-03-19T05:56:50.077Z,62.87
2023-03-19T05:58:08.077Z,63.01
2023-03-19T05:59:11.943Z,62.81
2023-03-19T06:00:18.273Z,62.69
2023-03-19T06:01:23.780Z,62.56
2023-03-19T06:02:27.474Z,62.50
2023-03-19T06:03:36.248Z,62.42
2023-03-19T06:04:42.859Z,62.33
2023-03-19T06:05:49.952Z,62.23
2023-03-19T06:07:00.162Z,62.30
2023-03-19T06:08:03.277Z,62.25
2023-03-19T06:09:25.120Z,62.20
2023-03-19T06:10:32.136Z,62.13
2023-03-19T06:11:36.779Z,62.06
2023-03-19T06:13:00.021Z,62.07
2023-03-19T06:14:14.013Z,61.82
2023-03-19T06:15:18.635Z,61.67
2023-03-19T06:16:21.721Z,61.45
2023-03-19T06:17:31.442Z,61.30
2023-03-19T06:18:38.358Z,61.31
2023-03-19T06:19:44.961Z,61.25
2023-03-19T06:20:48.320Z,61.20
2023-03-19T06:21:52.699Z,61.09
2023-03-19T06:22:55.544Z,61.04
2023-03-19T06:23:59.246Z,60.99
2023-03-19T06:25:07.794Z,61.00
2023-03-19T06:26:12.491Z,60.97
2023-03-19T06:27:27.465Z,61.00
2023-03-19T06:28:42.689Z,60.99
2023-03-19T06:29:45.779Z,61.02
2023-03-19T06:30:59.281Z,61.16
2023-03-19T06:32:22.050Z,61.29
2023-03-19T06:33:32.269Z,61.17
2023-03-19T06:34:36.512Z,61.27
2023-03-19T06:35:39.665Z,61.26
2023-03-19T06:36:42.894Z,61.15
2023-03-19T06:37:47.640Z,61.05
2023-03-19T06:38:51.194Z,60.99
2023-03-19T06:39:54.860Z,60.81
2023-03-19T06:40:58.097Z,60.70
2023-03-19T06:42:03.907Z,60.61
2023-03-19T06:43:08.854Z,60.66
2023-03-19T06:44:12.199Z,60.57
2023-03-19T06:45:16.603Z,60.51
2023-03-19T06:46:19.708Z,60.40
2023-03-19T06:47:23.164Z,60.43
2023-03-19T06:48:26.034Z,60.37
2023-03-19T06:49:29.157Z,60.39
2023-03-19T06:50:33.528Z,60.47
2023-03-19T06:51:37.271Z,60.66
2023-03-19T06:52:41.027Z,60.61
2023-03-19T06:53:43.975Z,60.54
2023-03-19T06:54:47.208Z,60.44
2023-03-19T06:55:50.398Z,60.21
2023-03-19T06:56:53.481Z,60.06
2023-03-19T06:57:57.022Z,60.11
2023-03-19T06:59:00.252Z,60.08
2023-03-19T07:00:06.150Z,60.09
2023-03-19T07:01:09.625Z,60.26
2023-03-19T07:02:13.068Z,60.14
2023-03-19T07:03:16.422Z,60.09
2023-03-19T07:04:19.713Z,60.06
2023-03-19T07:05:23.300Z,60.06
2023-03-19T07:06:26.732Z,60.00
2023-03-19T07:07:29.823Z,60.01
2023-03-19T07:08:33.593Z,59.63
2023-03-19T07:09:37.153Z,59.44
2023-03-19T07:10:40.807Z,59.21
2023-03-19T07:11:44.313Z,59.41
2023-03-19T07:12:47.771Z,59.33
2023-03-19T07:13:51.148Z,59.23
2023-03-19T07:14:59.204Z,59.41
2023-03-19T07:16:02.974Z,59.59
2023-03-19T07:17:07.563Z,60.14
2023-03-19T07:18:12.435Z,60.80
2023-03-19T07:19:15.706Z,60.89
2023-03-19T07:20:19.681Z,61.67
2023-03-19T07:21:23.783Z,61.89
2023-03-19T07:22:27.078Z,61.82
2023-03-19T07:23:30.576Z,62.12
2023-03-19T07:24:33.806Z,62.81
2023-03-19T07:25:37.098Z,62.97
2023-03-19T07:26:40.653Z,62.82
2023-03-19T07:27:44.870Z,62.65
2023-03-19T07:28:49.009Z,62.36
2023-03-19T07:29:52.278Z,62.03
2023-03-19T07:30:56.317Z,61.69
2023-03-19T07:31:59.658Z,61.40
2023-03-19T07:33:02.954Z,61.01
2023-03-19T07:34:09.191Z,60.57
2023-03-19T07:35:12.077Z,60.33
2023-03-19T07:36:14.993Z,60.08
2023-03-19T07:37:20.137Z,59.96
2023-03-19T07:38:24.306Z,59.93
2023-03-19T07:39:28.442Z,59.81
2023-03-19T07:40:32.152Z,59.76
2023-03-19T07:41:35.576Z,59.63
2023-03-19T07:42:38.766Z,59.49
2023-03-19T07:43:42.474Z,59.35
2023-03-19T07:44:45.579Z,59.01
2023-03-19T07:45:48.759Z,59.15
2023-03-19T07:46:52.120Z,59.30
2023-03-19T07:47:56.445Z,59.15
2023-03-19T07:48:59.577Z,59.30
2023-03-19T07:50:02.706Z,59.58
2023-03-19T07:51:07.445Z,59.60
2023-03-19T07:52:14.350Z,59.83
2023-03-19T07:53:17.568Z,59.80
2023-03-19T07:54:20.588Z,60.12
2023-03-19T07:55:23.843Z,60.65
2023-03-19T07:56:26.762Z,61.13
2023-03-19T07:57:29.946Z,60.84
2023-03-19T07:58:33.336Z,60.82
2023-03-19T07:59:36.446Z,60.74
2023-03-19T08:00:42.857Z,60.78
2023-03-19T08:01:48.440Z,61.10
2023-03-19T08:02:51.602Z,60.80
2023-03-19T08:03:54.891Z,60.75
2023-03-19T08:04:58.617Z,61.43
2023-03-19T08:06:01.591Z,60.79
2023-03-19T08:07:04.873Z,60.27
2023-03-19T08:08:08.086Z,60.83
2023-03-19T08:09:11.619Z,60.51
2023-03-19T08:10:18.236Z,60.26
2023-03-19T08:11:25.530Z,60.10
2023-03-19T08:12:30.542Z,59.51
2023-03-19T08:13:35.261Z,60.37
2023-03-19T08:14:42.999Z,60.16
2023-03-19T08:15:48.067Z,60.39
2023-03-19T08:16:51.949Z,60.25
2023-03-19T08:18:00.498Z,60.01
2023-03-19T08:19:04.176Z,60.37
2023-03-19T08:20:10.153Z,60.21
2023-03-19T08:21:13.276Z,60.10
2023-03-19T08:22:17.252Z,59.94
2023-03-19T08:23:20.875Z,59.43
2023-03-19T08:24:24.244Z,59.02
2023-03-19T08:25:27.788Z,59.36
2023-03-19T08:26:32.932Z,59.65
2023-03-19T08:27:36.697Z,58.88
2023-03-19T08:28:39.986Z,58.33
2023-03-19T08:29:43.031Z,59.06
2023-03-19T08:30:46.278Z,59.48
2023-03-19T08:31:49.424Z,59.34
2023-03-19T08:32:52.711Z,58.68
2023-03-19T08:33:56.525Z,58.65
2023-03-19T08:34:59.446Z,58.37
2023-03-19T08:36:11.955Z,58.27
2023-03-19T08:37:14.999Z,58.33
2023-03-19T08:38:18.556Z,58.58
2023-03-19T08:39:21.776Z,58.26
2023-03-19T08:40:25.345Z,58.04
2023-03-19T08:41:28.288Z,58.26
2023-03-19T08:42:31.593Z,58.18
2023-03-19T08:43:36.875Z,57.86
2023-03-19T08:44:40.072Z,57.97
2023-03-19T08:45:43.692Z,57.76
2023-03-19T08:46:47.055Z,57.83
2023-03-19T08:47:50.386Z,57.82
2023-03-19T08:48:53.807Z,58.15
2023-03-19T08:49:57.101Z,57.98
2023-03-19T08:51:03.045Z,57.93
2023-03-19T08:52:06.576Z,58.28
2023-03-19T08:53:09.495Z,58.24
2023-03-19T08:54:13.900Z,57.60
2023-03-19T08:55:18.110Z,57.30
2023-03-19T08:56:21.197Z,57.58
2023-03-19T08:57:24.137Z,57.70
2023-03-19T08:58:28.265Z,57.79
2023-03-19T08:59:34.083Z,57.39
2023-03-19T09:00:37.365Z,56.93
2023-03-19T09:01:40.903Z,56.64
2023-03-19T09:02:43.919Z,56.24
2023-03-19T09:03:47.062Z,55.94
2023-03-19T09:04:49.980Z,56.51
2023-03-19T09:05:53.213Z,56.39
2023-03-19T09:06:56.157Z,55.74
2023-03-19T09:07:59.272Z,55.44
2023-03-19T09:09:02.594Z,55.62
2023-03-19T09:10:06.236Z,55.91
2023-03-19T09:11:10.548Z,55.31
2023-03-19T09:12:16.745Z,54.89
2023-03-19T09:13:19.926Z,54.91
2023-03-19T09:14:23.173Z,55.03
2023-03-19T09:15:27.066Z,54.47
2023-03-19T09:16:31.316Z,54.77
2023-03-19T09:17:34.455Z,54.92
2023-03-19T09:18:37.379Z,54.79
2023-03-19T09:19:40.965Z,53.71
2023-03-19T09:20:44.043Z,54.26
2023-03-19T09:21:47.108Z,53.81
2023-03-19T09:22:49.946Z,53.49
2023-03-19T09:23:52.966Z,53.92
2023-03-19T09:24:55.832Z,53.88
2023-03-19T09:25:59.199Z,53.30
2023-03-19T09:27:03.079Z,53.44
2023-03-19T09:28:06.961Z,52.36
2023-03-19T09:29:09.891Z,53.10
2023-03-19T09:30:13.400Z,52.87
2023-03-19T09:31:16.631Z,52.54
2023-03-19T09:32:19.845Z,52.32
2023-03-19T09:33:22.862Z,52.55
2023-03-19T09:34:25.892Z,52.54
2023-03-19T09:35:31.346Z,52.39
2023-03-19T09:36:38.039Z,52.39
2023-03-19T09:37:41.390Z,51.94
2023-03-19T09:38:44.357Z,51.50
2023-03-19T09:39:47.185Z,51.61
2023-03-19T09:41:07.184Z,51.59
2023-03-19T09:42:18.944Z,51.55
2023-03-19T09:43:39.667Z,51.84
2023-03-19T09:44:45.638Z,51.64
2023-03-19T09:45:48.979Z,51.76
2023-03-19T09:47:13.162Z,51.91
2023-03-19T09:48:23.284Z,51.68
2023-03-19T09:49:30.050Z,51.40
2023-03-19T09:50:38.133Z,51.17
2023-03-19T09:51:49.079Z,50.10
2023-03-19T09:53:31.262Z,50.02
2023-03-19T09:54:43.296Z,48.41
2023-03-19T09:55:52.558Z,49.28
2023-03-19T09:56:56.037Z,50.09
2023-03-19T09:58:01.003Z,49.54
2023-03-19T09:59:03.942Z,48.11
2023-03-19T10:00:22.475Z,48.61
2023-03-19T10:01:37.257Z,49.05
2023-03-19T10:02:42.807Z,49.33
2023-03-19T10:04:10.902Z,48.98
2023-03-19T10:05:20.353Z,49.12
2023-03-19T10:06:42.169Z,48.79
2023-03-19T10:07:51.042Z,48.66
2023-03-19T10:08:58.960Z,49.47
2023-03-19T10:10:30.283Z,49.54
2023-03-19T10:12:06.106Z,48.70
2023-03-19T10:13:20.152Z,49.12
2023-03-19T10:14:38.290Z,48.65
2023-03-19T10:15:44.716Z,48.46
2023-03-19T10:16:52.082Z,48.11
2023-03-19T10:18:13.625Z,47.40
2023-03-19T10:19:24.525Z,47.75
2023-03-19T10:20:35.214Z,48.50
2023-03-19T10:21:47.024Z,48.27
2023-03-19T10:23:13.281Z,47.76
2023-03-19T10:24:32.002Z,47.66
2023-03-19T10:25:41.470Z,47.85
2023-03-19T10:26:45.876Z,47.31
2023-03-19T10:27:56.661Z,47.27
2023-03-19T10:29:14.762Z,47.52
2023-03-19T10:30:19.479Z,47.35
2023-03-19T10:31:26.006Z,47.07
2023-03-19T10:32:44.086Z,46.89
2023-03-19T10:34:23.551Z,47.36
2023-03-19T10:35:56.170Z,46.50
2023-03-19T10:37:07.940Z,45.50
2023-03-19T10:38:22.767Z,46.06
2023-03-19T10:39:25.785Z,46.34
2023-03-19T10:40:37.260Z,46.14
2023-03-19T10:41:45.378Z,46.55
2023-03-19T10:43:16.735Z,46.64
2023-03-19T10:44:33.348Z,46.28
2023-03-19T10:45:39.026Z,46.48
2023-03-19T10:46:42.364Z,46.34
2023-03-19T10:47:45.271Z,46.14
2023-03-19T10:48:48.569Z,46.03
2023-03-19T10:49:52.460Z,45.45
2023-03-19T10:50:55.250Z,45.00
2023-03-19T10:51:58.648Z,45.06
2023-03-19T10:53:25.348Z,44.67
2023-03-19T10:54:30.496Z,45.22
2023-03-19T10:55:34.420Z,44.50
2023-03-19T10:56:46.611Z,43.95
2023-03-19T10:57:51.706Z,44.62
2023-03-19T10:59:01.388Z,44.64
2023-03-19T11:00:18.005Z,44.81
2023-03-19T11:01:21.250Z,44.29
2023-03-19T11:02:31.105Z,44.31
2023-03-19T11:03:49.454Z,44.92
2023-03-19T11:05:22.031Z,44.96
2023-03-19T11:06:38.946Z,45.13
2023-03-19T11:07:41.930Z,45.35
2023-03-19T11:08:55.978Z,45.03
2023-03-19T11:09:59.259Z,44.43
2023-03-19T11:11:02.613Z,44.31
2023-03-19T11:12:19.638Z,44.41
2023-03-19T11:13:27.198Z,44.33
2023-03-19T11:14:35.813Z,43.99
2023-03-19T11:15:39.475Z,44.16
2023-03-19T11:16:54.283Z,42.99
2023-03-19T11:18:06.803Z,43.98
2023-03-19T11:19:20.433Z,43.93
2023-03-19T11:20:29.275Z,44.06
2023-03-19T11:21:33.011Z,43.97
2023-03-19T11:22:37.996Z,44.04
2023-03-19T11:23:42.086Z,43.98
2023-03-19T11:24:57.376Z,42.89
2023-03-19T11:26:04.166Z,42.64
2023-03-19T11:27:11.684Z,42.36
2023-03-19T11:28:20.991Z,42.31
2023-03-19T11:29:28.251Z,42.29
2023-03-19T11:30:46.608Z,42.46
2023-03-19T11:32:21.589Z,42.42
2023-03-19T11:33:47.831Z,42.10
2023-03-19T11:35:02.366Z,42.25
2023-03-19T11:36:12.063Z,41.91
2023-03-19T11:37:39.262Z,40.26
2023-03-19T11:38:54.100Z,41.27
2023-03-19T11:40:20.409Z,40.24
2023-03-19T11:41:41.947Z,41.26
2023-03-19T11:42:47.826Z,40.96
2023-03-19T11:43:57.537Z,39.16
2023-03-19T11:45:17.568Z,39.34
2023-03-19T11:46:34.503Z,39.33
2023-03-19T11:47:59.668Z,40.65
2023-03-19T11:49:05.467Z,40.62
2023-03-19T11:50:30.453Z,40.09
2023-03-19T11:52:00.822Z,40.36
2023-03-19T11:53:03.575Z,40.02
2023-03-19T11:54:31.742Z,40.20
2023-03-19T11:55:43.594Z,39.84
2023-03-19T11:56:55.905Z,39.85
2023-03-19T11:58:20.104Z,39.42
2023-03-19T11:59:40.289Z,39.67
2023-03-19T12:00:57.290Z,39.09
2023-03-19T12:02:19.211Z,39.56
2023-03-19T12:03:38.231Z,39.71
2023-03-19T12:05:16.453Z,39.18
2023-03-19T12:06:25.423Z,40.21
2023-03-19T12:07:47.049Z,40.35
2023-03-19T12:09:12.644Z,39.62
2023-03-19T12:10:33.611Z,39.12
2023-03-19T12:11:54.660Z,39.12
2023-03-19T12:13:15.356Z,37.00
2023-03-19T12:14:30.275Z,37.50
2023-03-19T12:16:02.866Z,37.72
2023-03-19T12:17:45.951Z,38.48
2023-03-19T12:19:11.714Z,37.00
2023-03-19T12:20:17.947Z,37.76
2023-03-19T12:21:40.552Z,37.32
2023-03-19T12:22:55.339Z,37.60
2023-03-19T12:24:04.553Z,37.46
2023-03-19T12:25:26.503Z,36.27
2023-03-19T12:26:54.521Z,36.89
2023-03-19T12:28:45.962Z,36.21
2023-03-19T12:30:02.035Z,36.35
2023-03-19T12:31:37.427Z,36.01
2023-03-19T12:32:43.521Z,36.42
2023-03-19T12:33:57.692Z,35.96
2023-03-19T12:35:11.851Z,35.87
2023-03-19T12:36:28.207Z,35.77
2023-03-19T12:37:45.253Z,35.50
2023-03-19T12:38:51.809Z,35.21
2023-03-19T12:40:15.199Z,34.96
2023-03-19T12:41:24.854Z,35.09
2023-03-19T12:42:33.937Z,34.80
2023-03-19T12:43:54.097Z,35.08
2023-03-19T12:44:59.546Z,34.55
2023-03-19T12:46:10.491Z,32.82
2023-03-19T12:47:26.939Z,32.45
2023-03-19T12:48:39.406Z,32.27
2023-03-19T12:49:52.407Z,32.87
2023-03-19T12:51:00.027Z,32.97
2023-03-19T12:52:24.024Z,33.48
2023-03-19T12:53:43.520Z,32.42
2023-03-19T12:54:55.377Z,31.19
2023-03-19T12:56:07.267Z,31.47
2023-03-19T12:57:18.574Z,31.43
2023-03-19T12:58:51.217Z,32.81
2023-03-19T13:00:20.481Z,33.08
2023-03-19T13:01:38.832Z,32.86
2023-03-19T13:02:57.481Z,31.60
2023-03-19T13:04:08.622Z,32.44
2023-03-19T13:05:37.508Z,32.83
2023-03-19T13:06:47.898Z,32.42
2023-03-19T13:08:17.104Z,31.38
2023-03-19T13:09:36.929Z,31.51
2023-03-19T13:10:40.384Z,32.10
2023-03-19T13:12:01.646Z,32.45
2023-03-19T13:13:25.649Z,32.54
2023-03-19T13:14:45.155Z,31.32
2023-03-19T13:15:52.859Z,32.12
2023-03-19T13:17:02.178Z,33.15
2023-03-19T13:18:33.354Z,33.41
2023-03-19T13:19:54.443Z,34.57
2023-03-19T13:21:23.507Z,34.61
2023-03-19T13:22:32.253Z,34.98
2023-03-19T13:23:38.406Z,34.90
2023-03-19T13:24:45.341Z,34.00
2023-03-19T13:25:49.429Z,33.41
2023-03-19T13:26:54.741Z,33.46
2023-03-19T13:27:57.712Z,33.16
2023-03-19T13:29:06.990Z,33.53
2023-03-19T13:30:10.261Z,33.75
2023-03-19T13:31:21.886Z,33.98
2023-03-19T13:32:40.749Z,34.12
2023-03-19T13:33:53.696Z,34.16
2023-03-19T13:35:34.112Z,33.92
2023-03-19T13:36:42.120Z,34.06
2023-03-19T13:37:55.816Z,34.31
2023-03-19T13:39:01.584Z,34.93
2023-03-19T13:40:06.032Z,35.04
2023-03-19T13:41:54.898Z,35.35
2023-03-19T13:42:57.792Z,35.84
2023-03-19T13:44:21.471Z,36.17
2023-03-19T13:45:37.669Z,36.26
2023-03-19T13:46:45.193Z,36.60
2023-03-19T13:47:51.079Z,36.91
2023-03-19T13:48:54.597Z,36.97
2023-03-19T13:50:08.803Z,37.22
2023-03-19T13:51:18.078Z,37.68
2023-03-19T13:52:21.113Z,37.78
2023-03-19T13:53:53.312Z,38.02
2023-03-19T13:55:25.197Z,38.27
2023-03-19T13:56:30.699Z,38.69
2023-03-19T13:57:36.239Z,39.07
2023-03-19T13:58:54.130Z,39.57
2023-03-19T13:59:57.354Z,39.68
2023-03-19T14:01:00.948Z,39.94
2023-03-19T14:02:24.199Z,39.74
2023-03-19T14:03:31.139Z,39.82
2023-03-19T14:04:38.027Z,40.33
2023-03-19T14:05:47.988Z,40.29
2023-03-19T14:06:55.419Z,40.45
2023-03-19T14:07:58.277Z,40.58
2023-03-19T14:09:02.059Z,40.99
2023-03-19T14:10:08.603Z,41.14
2023-03-19T14:11:22.344Z,41.63
2023-03-19T14:12:39.039Z,41.49
2023-03-19T14:13:48.169Z,41.60
2023-03-19T14:14:57.082Z,41.66
2023-03-19T14:16:21.384Z,41.63
2023-03-19T14:17:54.087Z,41.84
2023-03-19T14:19:00.437Z,41.82
2023-03-19T14:20:13.243Z,41.95
2023-03-19T14:21:56.332Z,41.91
2023-03-19T14:23:08.999Z,41.90
2023-03-19T14:26:17.309Z,42.02
2023-03-19T14:27:33.080Z,42.36
2023-03-19T14:28:41.588Z,42.77
2023-03-19T14:29:46.547Z,42.17
2023-03-19T14:30:50.396Z,41.85
2023-03-19T14:31:57.413Z,41.74
2023-03-19T14:33:06.116Z,41.94
2023-03-19T14:34:12.407Z,42.13
2023-03-19T14:35:20.310Z,42.15
2023-03-19T14:36:23.484Z,42.21
2023-03-19T14:37:34.624Z,42.24
2023-03-19T14:38:49.980Z,42.47
2023-03-19T14:40:02.883Z,42.90
2023-03-19T14:41:11.468Z,43.41
2023-03-19T14:42:28.208Z,43.87
2023-03-19T14:44:23.041Z,44.29